Airport ID:KJWN
Update Time (UTC):11/08/2020 10:39
Wind Speed (Knots):4
Wind Direction (Magnetic):220
Temperature (°C):23
Dew Point (°C):20
Humidity (%):84
Altimeter (inHg):29.94
Density Altitude (Feet):1800
Visibility:10+
Clouds (Hundreds of feet):FEW080 FEW095 SCT120
Present Weather:
METAR:METAR KJWN 111035Z AUTO 21005KT 10SM FEW060 SCT095 BKN110 23/20 A2993 RMK A01

The data displayed is for advisory purposes only and is not to be used for flight planning or operations.